Time;durP1;ratioP1;P1;durP2;ratioP2;P2;SDS_P1;SDS_P2;PMS_P1;PMS_P2;Temp;Humidity;BMP_temperature;BMP_pressure;BME280_temperature;BME280_humidity;BME280_pressure;Samples;Min_cycle;Max_cycle;Signal;HPM_P1;HPM_P2
2023/06/30 00:01:39;;;;;;;13.18;5.63;;;14.10;99.90;;;;;;4977030;28;20525;-70
2023/06/30 00:04:06;;;;;;;17.38;6.00;;;14.00;99.90;;;;;;4987275;28;20041;-71
2023/06/30 00:06:32;;;;;;;15.20;6.45;;;14.00;99.90;;;;;;4978047;28;20046;-71
2023/06/30 00:08:58;;;;;;;13.30;6.18;;;14.00;99.90;;;;;;4985175;28;20077;-71
2023/06/30 00:11:24;;;;;;;18.10;6.70;;;13.90;99.90;;;;;;4986486;28;20636;-70
2023/06/30 00:13:51;;;;;;;17.05;7.40;;;13.80;99.90;;;;;;4988800;28;20053;-71
2023/06/30 00:16:18;;;;;;;20.65;7.47;;;13.80;99.90;;;;;;4980096;28;20125;-71
2023/06/30 00:18:44;;;;;;;18.65;6.53;;;13.80;99.90;;;;;;4983425;28;20084;-71
2023/06/30 00:21:09;;;;;;;15.38;6.57;;;13.60;99.90;;;;;;4978176;28;20042;-71
2023/06/30 00:23:35;;;;;;;23.08;7.55;;;13.60;99.90;;;;;;4981961;28;20056;-71
2023/06/30 00:26:01;;;;;;;14.55;7.43;;;13.70;99.90;;;;;;4978620;28;20441;-70
2023/06/30 00:28:27;;;;;;;16.70;7.05;;;13.60;99.90;;;;;;4973917;28;20050;-71
2023/06/30 00:30:53;;;;;;;17.77;7.45;;;13.60;99.90;;;;;;4959964;28;20448;-71
2023/06/30 00:33:18;;;;;;;16.20;6.97;;;13.60;99.90;;;;;;4955545;28;20057;-71
2023/06/30 00:35:44;;;;;;;16.40;7.40;;;13.40;99.90;;;;;;4977288;28;20049;-70
2023/06/30 00:38:10;;;;;;;15.13;8.05;;;13.50;99.90;;;;;;4980748;28;20644;-70
2023/06/30 00:40:35;;;;;;;14.50;7.47;;;13.50;99.90;;;;;;4973637;28;20390;-71
2023/06/30 00:43:01;;;;;;;20.38;7.70;;;13.30;99.90;;;;;;4980735;28;20556;-72
2023/06/30 00:45:27;;;;;;;17.50;7.05;;;13.40;99.90;;;;;;4980640;28;20476;-71
2023/06/30 00:47:53;;;;;;;17.42;7.05;;;13.40;99.90;;;;;;4980798;28;20042;-70
2023/06/30 00:50:19;;;;;;;22.35;7.60;;;13.20;99.90;;;;;;4971829;28;20707;-71
2023/06/30 00:52:48;;;;;;;17.52;6.63;;;13.30;99.90;;;;;;4981723;28;20172;-71
2023/06/30 00:55:15;;;;;;;18.25;6.70;;;13.30;99.90;;;;;;4985869;28;20057;-72
2023/06/30 00:57:42;;;;;;;13.80;7.10;;;13.20;99.90;;;;;;4979877;28;20046;-71
2023/06/30 01:00:11;;;;;;;16.45;6.75;;;13.20;99.90;;;;;;4978508;28;20042;-72
2023/06/30 01:02:49;;;;;;;15.13;6.45;;;13.20;99.90;;;;;;4980110;28;20080;-71
2023/06/30 01:05:38;;;;;;;14.30;5.90;;;13.10;99.90;;;;;;4981852;28;20082;-71
2023/06/30 01:08:22;;;;;;;15.90;7.10;;;13.10;99.90;;;;;;4980012;28;20061;-73
2023/06/30 01:10:50;;;;;;;14.18;6.50;;;13.00;99.90;;;;;;4983278;28;20060;-72
2023/06/30 01:13:17;;;;;;;13.60;6.82;;;13.00;99.90;;;;;;4984489;28;20089;-72
2023/06/30 01:15:44;;;;;;;17.48;7.43;;;12.90;99.90;;;;;;4983961;28;20985;-71
2023/06/30 01:18:12;;;;;;;17.33;6.93;;;12.90;99.90;;;;;;4980596;28;20037;-69
2023/06/30 01:20:40;;;;;;;18.65;7.88;;;12.90;99.90;;;;;;4980295;28;20620;-72
2023/06/30 01:23:35;;;;;;;20.65;7.07;;;12.90;99.90;;;;;;4986684;28;20049;-73
2023/06/30 01:26:02;;;;;;;13.57;7.13;;;12.80;99.90;;;;;;4969193;28;20050;-71
2023/06/30 01:28:28;;;;;;;15.63;6.57;;;12.90;99.90;;;;;;4978274;28;20046;-71
2023/06/30 01:30:57;;;;;;;15.90;7.10;;;12.90;99.90;;;;;;4979329;28;20058;-71
2023/06/30 01:33:23;;;;;;;17.58;7.90;;;12.70;99.90;;;;;;4970116;28;20053;-71
2023/06/30 01:35:49;;;;;;;15.63;7.53;;;12.90;99.90;;;;;;4981567;28;20390;-71
2023/06/30 01:38:15;;;;;;;15.02;7.30;;;12.80;99.90;;;;;;4974082;28;20042;-71
2023/06/30 01:40:41;;;;;;;20.20;6.90;;;12.80;99.90;;;;;;4981342;28;20784;-70
2023/06/30 01:43:07;;;;;;;18.38;6.30;;;12.80;99.90;;;;;;4983833;28;20045;-72
2023/06/30 01:45:33;;;;;;;16.55;6.30;;;12.80;99.90;;;;;;4972067;28;20129;-72
2023/06/30 01:47:59;;;;;;;15.75;6.57;;;12.80;99.90;;;;;;4980388;28;20054;-72
2023/06/30 01:50:32;;;;;;;16.33;6.65;;;12.70;99.90;;;;;;4981557;28;20394;-71
2023/06/30 01:52:58;;;;;;;17.20;6.88;;;12.60;99.90;;;;;;4971751;28;20110;-69
2023/06/30 01:55:25;;;;;;;18.67;6.90;;;12.80;99.90;;;;;;4957646;28;20182;-70
2023/06/30 01:57:51;;;;;;;17.67;7.10;;;12.60;99.90;;;;;;4979434;28;20770;-71
2023/06/30 02:00:17;;;;;;;23.77;7.13;;;12.50;99.90;;;;;;4977188;28;20450;-71
2023/06/30 02:02:43;;;;;;;16.27;7.25;;;12.60;99.90;;;;;;4982676;28;20045;-71
2023/06/30 02:05:09;;;;;;;15.63;7.55;;;12.50;99.90;;;;;;4978892;28;20545;-71
2023/06/30 02:07:35;;;;;;;17.20;7.22;;;12.60;99.90;;;;;;4980691;28;20049;-72
2023/06/30 02:10:01;;;;;;;14.85;7.85;;;12.50;99.90;;;;;;4975426;28;20917;-69
2023/06/30 02:12:27;;;;;;;17.65;7.95;;;12.40;99.90;;;;;;4983010;28;20064;-70
2023/06/30 02:14:53;;;;;;;17.15;8.50;;;12.40;99.90;;;;;;4977921;28;20725;-72
2023/06/30 02:17:32;;;;;;;12.23;7.30;;;12.40;99.90;;;;;;4984864;28;20040;-70
2023/06/30 02:20:03;;;;;;;20.45;7.90;;;12.30;99.90;;;;;;4977183;28;20054;-70
2023/06/30 02:22:29;;;;;;;17.77;8.20;;;12.30;99.90;;;;;;4981180;28;20048;-70
2023/06/30 02:24:56;;;;;;;16.90;8.23;;;12.40;99.90;;;;;;4955610;28;20034;-71
2023/06/30 02:27:22;;;;;;;18.45;8.18;;;12.30;99.90;;;;;;4976304;28;20087;-72
2023/06/30 02:29:48;;;;;;;19.83;8.55;;;12.10;99.90;;;;;;4977476;28;20052;-70
2023/06/30 02:32:13;;;;;;;17.20;8.55;;;12.10;99.90;;;;;;4986520;28;20281;-73
2023/06/30 02:34:39;;;;;;;17.88;8.60;;;12.10;99.90;;;;;;4975182;28;20092;-69
2023/06/30 02:37:05;;;;;;;14.73;7.95;;;12.10;99.90;;;;;;4982738;28;20050;-71
2023/06/30 02:39:31;;;;;;;19.70;8.05;;;12.00;99.90;;;;;;4978052;28;20125;-71
2023/06/30 02:41:56;;;;;;;17.77;8.35;;;12.10;99.90;;;;;;4979070;28;20044;-70
2023/06/30 02:44:22;;;;;;;18.33;8.45;;;12.10;99.90;;;;;;4954059;28;20056;-73
2023/06/30 02:46:48;;;;;;;16.98;8.23;;;12.00;99.90;;;;;;4982814;28;20497;-70
2023/06/30 02:49:13;;;;;;;21.85;8.80;;;12.00;99.90;;;;;;4975780;28;20046;-72
2023/06/30 02:51:39;;;;;;;15.07;8.60;;;12.10;99.90;;;;;;4984118;28;20053;-71
2023/06/30 02:54:05;;;;;;;21.25;8.48;;;11.90;99.90;;;;;;4971225;28;20046;-70
2023/06/30 02:56:30;;;;;;;17.38;8.52;;;11.90;99.90;;;;;;4980812;28;20060;-72
2023/06/30 02:58:56;;;;;;;17.92;8.13;;;12.00;99.90;;;;;;4980610;28;21271;-72
2023/06/30 03:01:22;;;;;;;18.35;8.32;;;12.00;99.90;;;;;;4980770;28;20046;-73
2023/06/30 03:03:48;;;;;;;12.70;8.27;;;11.90;99.90;;;;;;4975297;28;20349;-70
2023/06/30 03:06:14;;;;;;;23.38;9.63;;;12.00;99.90;;;;;;4974844;28;20049;-69
2023/06/30 03:08:40;;;;;;;17.10;8.35;;;11.90;99.90;;;;;;4954148;28;20081;-71
2023/06/30 03:11:06;;;;;;;17.08;8.18;;;11.80;99.90;;;;;;4978877;28;20120;-71
2023/06/30 03:13:31;;;;;;;17.75;8.75;;;11.80;99.90;;;;;;4983969;28;20587;-72
2023/06/30 03:15:57;;;;;;;18.60;9.00;;;11.70;99.90;;;;;;4977319;28;20056;-70
2023/06/30 03:18:23;;;;;;;19.40;8.15;;;11.90;99.90;;;;;;4981604;28;20049;-70
2023/06/30 03:20:49;;;;;;;19.08;8.32;;;11.70;99.90;;;;;;4979643;28;21209;-70
2023/06/30 03:23:15;;;;;;;13.82;8.15;;;11.90;99.90;;;;;;4969348;28;20042;-69
2023/06/30 03:25:41;;;;;;;17.58;8.85;;;11.90;99.90;;;;;;4975005;28;20053;-70
2023/06/30 03:28:07;;;;;;;22.08;9.10;;;11.80;99.90;;;;;;4979807;28;20050;-70
2023/06/30 03:30:32;;;;;;;16.20;8.10;;;11.80;99.90;;;;;;4978580;28;20522;-71
2023/06/30 03:32:58;;;;;;;25.40;9.20;;;11.80;99.90;;;;;;4977732;28;20042;-71
2023/06/30 03:35:24;;;;;;;19.02;9.20;;;11.70;99.90;;;;;;4983602;28;20049;-70
2023/06/30 03:37:49;;;;;;;22.50;8.90;;;11.80;99.90;;;;;;4987081;28;20033;-71
2023/06/30 03:40:15;;;;;;;23.00;8.70;;;11.70;99.90;;;;;;4963687;28;20153;-70
2023/06/30 03:42:41;;;;;;;17.15;8.90;;;11.80;99.90;;;;;;4955815;28;20057;-71
2023/06/30 03:45:07;;;;;;;15.98;9.23;;;11.70;99.90;;;;;;4982749;28;20130;-71
2023/06/30 03:47:33;;;;;;;20.33;8.02;;;11.80;99.90;;;;;;4983049;28;20050;-70
2023/06/30 03:49:59;;;;;;;16.35;8.57;;;11.70;99.90;;;;;;4971553;28;20050;-71
2023/06/30 03:52:24;;;;;;;17.80;7.90;;;11.70;99.90;;;;;;4982129;28;20192;-71
2023/06/30 03:54:51;;;;;;;13.07;7.50;;;11.70;99.90;;;;;;4978144;28;20030;-71
2023/06/30 03:57:17;;;;;;;14.80;8.10;;;11.70;99.90;;;;;;4981615;28;20042;-72
2023/06/30 03:59:42;;;;;;;13.55;7.82;;;11.80;99.90;;;;;;4978684;28;20609;-70
2023/06/30 04:02:08;;;;;;;18.98;8.43;;;11.90;99.90;;;;;;4979320;28;20045;-70
2023/06/30 04:04:34;;;;;;;20.83;9.30;;;11.90;99.90;;;;;;4969082;28;20058;-71
2023/06/30 04:07:00;;;;;;;19.25;8.13;;;11.80;99.90;;;;;;4970110;28;20598;-70
2023/06/30 04:09:26;;;;;;;20.05;8.50;;;11.80;99.90;;;;;;4959614;28;20103;-72
2023/06/30 04:11:52;;;;;;;14.60;7.55;;;11.80;99.90;;;;;;4973108;28;20035;-70
2023/06/30 04:14:19;;;;;;;17.05;7.78;;;11.80;99.90;;;;;;4972075;28;20630;-72
2023/06/30 04:16:45;;;;;;;20.08;7.95;;;11.80;99.90;;;;;;4977143;28;20048;-70
2023/06/30 04:19:11;;;;;;;12.18;7.22;;;12.00;99.90;;;;;;4958559;28;20046;-70
2023/06/30 04:21:36;;;;;;;15.93;7.00;;;11.90;99.90;;;;;;4988260;28;20520;-70
2023/06/30 04:24:02;;;;;;;19.17;7.93;;;12.10;99.90;;;;;;4979264;28;20056;-71
2023/06/30 04:26:30;;;;;;;20.48;6.68;;;12.10;99.90;;;;;;4979344;28;20046;-71
2023/06/30 04:28:56;;;;;;;14.40;6.70;;;12.10;99.90;;;;;;4980029;28;20053;-71
2023/06/30 04:31:22;;;;;;;18.83;7.43;;;12.10;99.90;;;;;;4978597;28;20811;-71
2023/06/30 04:33:47;;;;;;;19.30;7.15;;;12.20;99.90;;;;;;4983171;28;20054;-71
2023/06/30 04:36:13;;;;;;;13.30;6.25;;;12.20;99.90;;;;;;4982013;28;20064;-71
2023/06/30 04:38:39;;;;;;;15.45;6.20;;;12.40;99.90;;;;;;4974957;28;20489;-71
2023/06/30 04:41:05;;;;;;;16.92;6.15;;;12.30;99.90;;;;;;4975324;28;20046;-71
2023/06/30 04:43:31;;;;;;;14.45;6.10;;;12.40;99.90;;;;;;4978050;28;20517;-72
2023/06/30 04:45:57;;;;;;;15.13;5.50;;;12.60;99.90;;;;;;4981282;28;20056;-70
2023/06/30 04:48:23;;;;;;;14.73;5.82;;;12.60;99.90;;;;;;4971611;28;20041;-72
2023/06/30 04:50:48;;;;;;;14.40;5.40;;;12.80;99.90;;;;;;4978519;28;20050;-72
2023/06/30 04:53:14;;;;;;;15.88;5.68;;;12.90;99.90;;;;;;4960102;28;20044;-70
2023/06/30 04:55:40;;;;;;;14.63;5.13;;;12.90;99.90;;;;;;4981461;28;20073;-69
2023/06/30 04:58:06;;;;;;;15.43;5.00;;;13.00;99.90;;;;;;4981382;28;20515;-71
2023/06/30 05:00:32;;;;;;;14.73;5.38;;;13.10;99.90;;;;;;4971556;28;20069;-70
2023/06/30 05:02:57;;;;;;;12.05;4.88;;;13.20;99.90;;;;;;4981165;28;20073;-70
2023/06/30 05:05:23;;;;;;;11.57;5.00;;;13.40;99.90;;;;;;4980561;28;20038;-70
2023/06/30 05:07:49;;;;;;;15.32;4.93;;;13.60;99.90;;;;;;4980190;28;20523;-71
2023/06/30 05:10:14;;;;;;;12.52;4.53;;;13.60;99.90;;;;;;4976342;28;20722;-71
2023/06/30 05:12:40;;;;;;;11.25;4.25;;;13.70;99.90;;;;;;4976811;28;20077;-70
2023/06/30 05:15:07;;;;;;;13.35;3.58;;;13.70;99.90;;;;;;4973482;28;20124;-72
2023/06/30 05:17:33;;;;;;;18.05;4.47;;;13.80;99.90;;;;;;4971842;28;20053;-71
2023/06/30 05:20:00;;;;;;;11.75;3.95;;;13.80;99.90;;;;;;4979074;28;20080;-71
2023/06/30 05:22:25;;;;;;;14.85;4.05;;;14.00;99.90;;;;;;4972045;28;21323;-70
2023/06/30 05:24:51;;;;;;;10.43;3.83;;;13.90;99.90;;;;;;4975151;28;20057;-72
2023/06/30 05:27:18;;;;;;;10.48;3.60;;;14.10;99.90;;;;;;4985473;28;20054;-72
2023/06/30 05:29:44;;;;;;;9.68;3.08;;;14.10;99.90;;;;;;4982197;28;20046;-71
2023/06/30 05:32:09;;;;;;;10.95;3.53;;;14.30;99.90;;;;;;4977743;28;20635;-72
2023/06/30 05:34:35;;;;;;;7.93;2.38;;;14.70;99.90;;;;;;4972897;28;20770;-72
2023/06/30 05:37:01;;;;;;;17.95;3.10;;;14.90;99.90;;;;;;4979304;28;20682;-69
2023/06/30 05:39:26;;;;;;;6.15;1.70;;;15.30;99.90;;;;;;4979963;28;20057;-70
2023/06/30 05:41:52;;;;;;;7.75;2.13;;;15.50;99.90;;;;;;4977888;28;20322;-72
2023/06/30 05:44:18;;;;;;;7.28;2.03;;;15.50;99.90;;;;;;4976758;28;20993;-70
2023/06/30 05:46:44;;;;;;;8.50;1.80;;;15.60;1.80;;;;;;4947673;28;20445;-71
2023/06/30 05:49:09;;;;;;;6.53;1.38;;;15.90;1.00;;;;;;4980316;28;20039;-73
2023/06/30 05:51:36;;;;;;;4.38;1.20;;;16.10;1.00;;;;;;4979829;28;20054;-70
2023/06/30 05:54:02;;;;;;;9.55;1.80;;;16.20;99.90;;;;;;4980142;28;20053;-71
2023/06/30 05:56:29;;;;;;;8.13;1.52;;;16.40;99.90;;;;;;4979866;28;20046;-73
2023/06/30 05:58:55;;;;;;;8.02;1.38;;;16.60;99.90;;;;;;4985314;28;20030;-72
2023/06/30 06:01:21;;;;;;;4.57;1.10;;;16.80;99.90;;;;;;4980291;28;20057;-70
2023/06/30 06:03:48;;;;;;;5.55;0.88;;;16.90;99.90;;;;;;4954411;28;20050;-72
2023/06/30 06:06:14;;;;;;;5.65;1.33;;;17.20;99.90;;;;;;4982215;28;20037;-71
2023/06/30 06:08:44;;;;;;;6.05;1.00;;;17.30;92.70;;;;;;4977913;28;20038;-72
2023/06/30 06:11:10;;;;;;;6.65;0.95;;;17.50;5.70;;;;;;5006414;28;20049;-72
2023/06/30 06:13:37;;;;;;;10.88;1.60;;;17.50;1.00;;;;;;4982724;28;20069;-71
2023/06/30 06:16:04;;;;;;;6.10;1.35;;;17.70;1.00;;;;;;4985075;28;20095;-71
2023/06/30 06:18:30;;;;;;;5.28;0.93;;;18.00;1.00;;;;;;4985877;28;20736;-71
2023/06/30 06:20:57;;;;;;;4.78;0.80;;;18.10;1.00;;;;;;4985892;28;20042;-70
2023/06/30 06:23:23;;;;;;;10.02;0.90;;;18.20;99.90;;;;;;4981568;28;20765;-71
2023/06/30 06:25:49;;;;;;;4.07;0.70;;;18.30;99.90;;;;;;4978287;28;20042;-70
2023/06/30 06:28:15;;;;;;;3.85;0.50;;;18.30;99.90;;;;;;4962102;28;20053;-71
2023/06/30 06:30:41;;;;;;;3.95;0.70;;;18.50;99.90;;;;;;4983667;28;20738;-70
2023/06/30 06:33:07;;;;;;;2.65;0.50;;;18.70;99.90;;;;;;4978979;28;20541;-70
2023/06/30 06:35:33;;;;;;;4.82;0.40;;;18.70;99.90;;;;;;4982088;28;20034;-71
2023/06/30 06:38:00;;;;;;;4.43;0.47;;;18.60;99.90;;;;;;4982544;28;20970;-71
2023/06/30 06:40:26;;;;;;;5.28;0.60;;;18.70;99.90;;;;;;4981581;28;20417;-71
2023/06/30 06:42:54;;;;;;;5.80;0.50;;;18.80;99.90;;;;;;4981438;28;20072;-70
2023/06/30 06:45:20;;;;;;;3.15;0.47;;;18.50;99.90;;;;;;4980305;28;20050;-70
2023/06/30 06:48:21;;;;;;;5.32;0.55;;;18.40;99.90;;;;;;4980902;28;20626;-69
2023/06/30 06:50:52;;;;;;;6.05;0.60;;;18.20;99.90;;;;;;4979514;28;20034;-69
2023/06/30 06:53:32;;;;;;;4.63;0.50;;;18.20;99.90;;;;;;4984034;28;20824;-72
2023/06/30 06:55:58;;;;;;;2.30;0.40;;;18.10;99.90;;;;;;4979078;28;20097;-71
2023/06/30 06:58:27;;;;;;;3.33;0.40;;;18.10;99.90;;;;;;4968703;28;20041;-72
2023/06/30 07:00:53;;;;;;;4.10;0.43;;;18.20;99.90;;;;;;4976080;28;20058;-70
2023/06/30 07:03:19;;;;;;;1.65;0.30;;;18.30;99.90;;;;;;4975035;28;20057;-69
2023/06/30 07:05:45;;;;;;;1.60;0.20;;;18.40;1.00;;;;;;4975046;28;20517;-70
2023/06/30 07:08:12;;;;;;;2.90;0.30;;;18.70;1.00;;;;;;4976561;28;20041;-70
2023/06/30 07:10:38;;;;;;;3.78;0.28;;;18.80;1.00;;;;;;4975518;28;20697;-71
2023/06/30 07:13:04;;;;;;;1.73;0.40;;;18.80;1.00;;;;;;4972973;28;20054;-70
2023/06/30 07:15:30;;;;;;;2.33;0.30;;;18.70;99.90;;;;;;4975458;28;20077;-68
2023/06/30 07:17:57;;;;;;;2.55;0.30;;;19.00;99.90;;;;;;4976342;28;20043;-69
2023/06/30 07:20:24;;;;;;;1.42;0.30;;;19.40;99.90;;;;;;4983089;28;20466;-71
2023/06/30 07:22:51;;;;;;;1.73;0.30;;;19.70;99.90;;;;;;4970719;28;20054;-69
2023/06/30 07:25:16;;;;;;;1.63;0.30;;;20.00;99.90;;;;;;4971875;28;20128;-71
2023/06/30 07:27:56;;;;;;;2.78;0.20;;;20.10;99.90;;;;;;4980437;28;20062;-71
2023/06/30 07:30:24;;;;;;;2.47;0.32;;;20.10;99.90;;;;;;4985028;28;20046;-70
2023/06/30 07:32:50;;;;;;;3.40;0.20;;;20.20;99.90;;;;;;4986478;28;20062;-69
2023/06/30 07:35:17;;;;;;;2.17;0.30;;;19.80;99.90;;;;;;4976519;28;20058;-70
2023/06/30 07:37:44;;;;;;;2.78;0.30;;;19.60;99.90;;;;;;4975833;28;20046;-72
2023/06/30 07:40:10;;;;;;;3.92;0.30;;;19.80;99.90;;;;;;4973136;28;20050;-70
2023/06/30 07:42:38;;;;;;;3.78;0.30;;;19.60;99.90;;;;;;4973154;28;20050;-70
2023/06/30 07:45:07;;;;;;;4.35;0.30;;;19.40;99.90;;;;;;4971004;28;20834;-72
2023/06/30 07:47:33;;;;;;;4.22;0.30;;;19.30;99.90;;;;;;4969358;28;20050;-71
2023/06/30 07:49:58;;;;;;;2.88;0.20;;;19.60;99.90;;;;;;4976683;28;20038;-71
2023/06/30 07:52:24;;;;;;;3.65;0.32;;;19.80;99.90;;;;;;4970664;28;20651;-70
2023/06/30 07:54:55;;;;;;;2.67;0.30;;;19.90;99.90;;;;;;4984685;28;20137;-72
2023/06/30 07:57:30;;;;;;;2.95;0.20;;;20.00;99.90;;;;;;4985621;28;20046;-71
2023/06/30 07:59:55;;;;;;;3.88;0.30;;;19.90;99.90;;;;;;4980127;28;20074;-71
2023/06/30 08:02:21;;;;;;;6.18;0.30;;;19.80;99.90;;;;;;4989645;28;20161;-71
2023/06/30 08:04:47;;;;;;;4.20;0.40;;;19.40;99.90;;;;;;4977427;28;20057;-70
2023/06/30 08:07:13;;;;;;;2.80;0.35;;;19.30;99.90;;;;;;4978878;28;20089;-70
2023/06/30 08:09:39;;;;;;;5.25;0.65;;;19.30;99.90;;;;;;4995876;28;20085;-71
2023/06/30 08:12:05;;;;;;;3.13;0.30;;;19.00;99.90;;;;;;4993921;28;20053;-70
2023/06/30 08:14:30;;;;;;;5.53;0.40;;;18.90;99.90;;;;;;4979303;28;20417;-73
2023/06/30 08:16:56;;;;;;;2.15;0.30;;;18.60;99.90;;;;;;4972081;28;20053;-71
2023/06/30 08:19:22;;;;;;;2.63;0.30;;;18.50;99.90;;;;;;4981341;28;20338;-72
2023/06/30 08:21:47;;;;;;;5.32;0.40;;;18.90;99.90;;;;;;4983893;28;20046;-71
2023/06/30 08:24:13;;;;;;;5.05;0.50;;;19.30;99.90;;;;;;4977283;28;20485;-69
2023/06/30 08:26:39;;;;;;;4.57;0.40;;;19.90;99.90;;;;;;4982345;28;20053;-70
2023/06/30 08:29:04;;;;;;;2.85;0.30;;;20.10;99.90;;;;;;4995482;28;20054;-71
2023/06/30 08:31:30;;;;;;;2.38;0.20;;;20.10;99.90;;;;;;4997051;28;20058;-72
2023/06/30 08:33:56;;;;;;;4.25;0.30;;;19.80;99.90;;;;;;4993609;28;20050;-71
2023/06/30 08:36:23;;;;;;;8.13;0.70;;;19.50;99.90;;;;;;4987277;28;20053;-72
2023/06/30 08:38:48;;;;;;;4.05;0.40;;;19.40;99.90;;;;;;4993095;28;20458;-72
2023/06/30 08:41:15;;;;;;;5.78;0.50;;;19.40;99.90;;;;;;4997071;28;20105;-72
2023/06/30 08:43:41;;;;;;;6.28;0.38;;;19.20;99.90;;;;;;4996208;28;20046;-71
2023/06/30 08:46:10;;;;;;;3.50;0.35;;;19.30;99.90;;;;;;4990530;28;20524;-70
2023/06/30 08:48:36;;;;;;;3.83;0.35;;;20.00;99.90;;;;;;4989229;28;20061;-71
2023/06/30 08:51:03;;;;;;;3.22;0.30;;;20.20;99.90;;;;;;4968450;28;20731;-71
2023/06/30 08:53:31;;;;;;;3.60;0.40;;;20.20;99.90;;;;;;4981402;28;20049;-71
2023/06/30 08:55:58;;;;;;;2.78;0.28;;;20.00;99.90;;;;;;4990679;28;20095;-71
2023/06/30 08:58:28;;;;;;;3.40;0.20;;;20.00;99.90;;;;;;4987310;28;20289;-72
2023/06/30 09:00:55;;;;;;;1.70;0.20;;;20.40;99.90;;;;;;4990167;28;20042;-72
2023/06/30 09:03:22;;;;;;;3.05;0.30;;;20.80;99.90;;;;;;4995544;28;20402;-72
2023/06/30 09:05:58;;;;;;;4.47;0.30;;;21.20;99.90;;;;;;4974520;28;20701;-70
2023/06/30 09:08:35;;;;;;;2.80;0.20;;;21.10;99.90;;;;;;4977950;28;20048;-73
2023/06/30 09:11:04;;;;;;;3.40;0.30;;;21.40;99.90;;;;;;4991256;28;20077;-71
2023/06/30 09:13:31;;;;;;;1.80;0.22;;;21.60;99.90;;;;;;4962559;28;20053;-71
2023/06/30 09:15:59;;;;;;;3.08;0.20;;;21.80;99.90;;;;;;4984889;28;20126;-71
2023/06/30 09:18:25;;;;;;;1.83;0.20;;;22.20;86.90;;;;;;4971661;28;20061;-72
2023/06/30 09:20:52;;;;;;;8.73;0.30;;;22.50;49.60;;;;;;4984190;28;20542;-75
2023/06/30 09:23:18;;;;;;;1.20;0.20;;;22.10;64.40;;;;;;4990455;28;20048;-72
2023/06/30 09:25:44;;;;;;;2.25;0.20;;;22.20;49.90;;;;;;4975997;28;20038;-71
2023/06/30 09:28:12;;;;;;;3.67;0.20;;;22.00;54.00;;;;;;4974873;28;20145;-71
2023/06/30 09:30:42;;;;;;;6.18;0.30;;;21.90;72.20;;;;;;4973539;28;20050;-71
2023/06/30 09:33:08;;;;;;;3.65;0.30;;;22.20;83.00;;;;;;4991869;28;20041;-72
2023/06/30 09:35:42;;;;;;;2.08;0.30;;;22.30;76.60;;;;;;4987801;28;20160;-70
2023/06/30 09:38:18;;;;;;;3.47;0.40;;;22.70;67.40;;;;;;4991037;28;20050;-73
2023/06/30 09:40:49;;;;;;;2.35;0.20;;;22.70;73.50;;;;;;4983560;28;20058;-72
2023/06/30 09:43:18;;;;;;;3.17;0.20;;;22.70;87.10;;;;;;4974122;28;20054;-72
2023/06/30 09:45:46;;;;;;;2.55;0.25;;;22.80;59.70;;;;;;4980526;28;20131;-71
2023/06/30 09:48:13;;;;;;;2.22;0.30;;;23.00;60.90;;;;;;4978514;28;20042;-71
2023/06/30 09:50:42;;;;;;;1.38;0.20;;;22.20;61.30;;;;;;4987883;28;20042;-69
2023/06/30 09:53:08;;;;;;;2.63;0.40;;;22.10;80.60;;;;;;4983680;28;20046;-71
2023/06/30 09:55:46;;;;;;;3.33;0.77;;;21.40;94.30;;;;;;4977013;28;20712;-70
2023/06/30 09:58:13;;;;;;;2.28;0.40;;;21.00;95.20;;;;;;4981047;28;20050;-71
2023/06/30 10:00:41;;;;;;;1.92;0.30;;;20.90;99.90;;;;;;4978272;28;20046;-69
2023/06/30 10:03:08;;;;;;;3.47;0.40;;;20.90;99.90;;;;;;4986948;28;20379;-70
2023/06/30 10:05:35;;;;;;;2.75;0.20;;;20.60;99.90;;;;;;4982053;28;20113;-72
2023/06/30 10:08:02;;;;;;;4.35;0.30;;;21.10;99.90;;;;;;4969368;28;20068;-72
2023/06/30 10:10:29;;;;;;;3.45;0.30;;;21.60;99.90;;;;;;4988120;28;20057;-71
2023/06/30 10:12:58;;;;;;;2.58;0.30;;;21.90;99.90;;;;;;4982910;28;20669;-70
2023/06/30 10:15:25;;;;;;;5.03;0.40;;;22.20;86.50;;;;;;4988614;28;20103;-71
2023/06/30 10:17:56;;;;;;;2.40;0.15;;;22.10;89.50;;;;;;4980183;28;20030;-71
2023/06/30 10:20:22;;;;;;;3.05;0.30;;;22.10;76.40;;;;;;4969625;28;20090;-70
2023/06/30 10:22:47;;;;;;;3.13;0.17;;;22.10;76.50;;;;;;4985994;28;20141;-72
2023/06/30 10:25:16;;;;;;;1.70;0.20;;;22.00;78.60;;;;;;4979948;28;20096;-71
2023/06/30 10:27:44;;;;;;;1.70;0.20;;;21.80;74.00;;;;;;4985766;28;20512;-73
2023/06/30 10:30:12;;;;;;;4.65;0.30;;;21.20;93.60;;;;;;4979708;28;20572;-71
2023/06/30 10:32:39;;;;;;;2.95;0.20;;;21.10;99.90;;;;;;4979981;28;20065;-70
2023/06/30 10:35:08;;;;;;;4.05;0.30;;;21.10;99.90;;;;;;4983904;28;20563;-69
2023/06/30 10:37:34;;;;;;;2.17;0.20;;;21.00;99.90;;;;;;4973618;28;20042;-70
2023/06/30 10:40:00;;;;;;;3.70;0.30;;;20.90;99.90;;;;;;4977598;28;20038;-69
2023/06/30 10:42:35;;;;;;;4.00;0.45;;;21.00;99.90;;;;;;4976739;28;20514;-70
2023/06/30 10:45:01;;;;;;;3.53;0.30;;;20.80;99.90;;;;;;4977224;28;20050;-72
2023/06/30 10:47:29;;;;;;;3.55;0.35;;;20.80;99.90;;;;;;4975947;28;20280;-70
2023/06/30 10:49:56;;;;;;;5.28;0.60;;;20.80;99.90;;;;;;4980723;28;20694;-69
2023/06/30 10:52:25;;;;;;;2.47;0.20;;;20.60;99.90;;;;;;4979175;28;20136;-69
2023/06/30 10:54:51;;;;;;;5.25;0.20;;;20.70;99.90;;;;;;4979377;28;20050;-69
2023/06/30 10:57:17;;;;;;;2.42;0.20;;;21.30;99.90;;;;;;4977946;28;20100;-68
2023/06/30 10:59:45;;;;;;;2.22;0.28;;;22.00;99.90;;;;;;4974908;28;20042;-70
2023/06/30 11:02:12;;;;;;;2.08;0.20;;;22.40;96.50;;;;;;4980276;28;20047;-70
2023/06/30 11:04:39;;;;;;;3.30;0.25;;;22.00;87.90;;;;;;4979265;28;20053;-73
2023/06/30 11:07:06;;;;;;;2.72;0.20;;;21.80;83.40;;;;;;4978149;28;20094;-70
2023/06/30 11:09:59;;;;;;;3.10;0.20;;;22.00;95.10;;;;;;4976830;28;21883;-69
2023/06/30 11:12:26;;;;;;;;;;;22.50;50.20;;;;;;4978493;28;20050;-73
2023/06/30 11:15:00;;;;;;;2.70;0.28;;;23.00;70.00;;;;;;4980346;28;19925;-71
2023/06/30 11:17:28;;;;;;;2.53;0.20;;;23.70;83.40;;;;;;4977695;28;20041;-71
2023/06/30 11:20:11;;;;;;;2.28;0.20;;;24.20;79.20;;;;;;4980825;28;20125;-71
2023/06/30 11:22:37;;;;;;;2.85;0.20;;;24.60;66.00;;;;;;4986888;28;20765;-71
2023/06/30 11:25:05;;;;;;;2.08;0.20;;;25.00;47.70;;;;;;4976216;28;20319;-71
2023/06/30 11:27:32;;;;;;;1.85;0.28;;;24.60;27.60;;;;;;4972218;28;20736;-72
2023/06/30 11:30:01;;;;;;;3.30;0.20;;;24.10;21.80;;;;;;4961124;28;20053;-72
2023/06/30 11:32:29;;;;;;;3.55;0.45;;;23.00;35.10;;;;;;4977253;28;21236;-71
2023/06/30 11:34:56;;;;;;;2.85;0.30;;;23.00;58.00;;;;;;4976096;28;20042;-71
2023/06/30 11:37:22;;;;;;;4.13;0.20;;;23.30;72.00;;;;;;4974361;28;20152;-72
2023/06/30 11:39:56;;;;;;;1.63;0.25;;;23.80;62.60;;;;;;4977874;28;20128;-72
2023/06/30 11:42:23;;;;;;;1.58;0.38;;;23.80;41.80;;;;;;4975893;28;20042;-71
2023/06/30 11:44:49;;;;;;;3.92;0.30;;;23.40;46.80;;;;;;4972923;28;20121;-71
2023/06/30 11:47:16;;;;;;;2.78;0.40;;;23.10;50.50;;;;;;4974432;28;20089;-71
2023/06/30 11:49:42;;;;;;;4.60;0.30;;;23.10;60.70;;;;;;4974361;28;21253;-72
2023/06/30 11:52:09;;;;;;;1.77;0.30;;;23.60;62.70;;;;;;4975552;28;20184;-72
2023/06/30 11:54:36;;;;;;;3.08;0.40;;;24.00;37.80;;;;;;4978350;28;20038;-72
2023/06/30 11:57:04;;;;;;;3.08;0.30;;;23.80;42.10;;;;;;4983214;28;20081;-71
2023/06/30 11:59:33;;;;;;;2.78;0.32;;;23.90;58.10;;;;;;4975807;28;20149;-73
2023/06/30 12:02:02;;;;;;;2.30;0.28;;;24.00;49.70;;;;;;4973577;28;20042;-72
2023/06/30 12:04:33;;;;;;;4.00;0.30;;;23.90;49.00;;;;;;4975491;28;20085;-72
2023/06/30 12:07:01;;;;;;;5.10;0.40;;;24.10;36.30;;;;;;4977293;28;20612;-71
2023/06/30 12:09:27;;;;;;;2.58;0.30;;;24.20;21.90;;;;;;4973796;28;20050;-70
2023/06/30 12:11:52;;;;;;;3.65;0.30;;;24.60;21.90;;;;;;4974155;28;20088;-71
2023/06/30 12:14:22;;;;;;;5.55;0.40;;;24.80;26.90;;;;;;4975318;28;20308;-71
2023/06/30 12:16:48;;;;;;;4.13;0.30;;;24.70;56.20;;;;;;4976950;28;20589;-71
2023/06/30 12:19:15;;;;;;;3.78;0.40;;;24.10;55.20;;;;;;4957498;28;20560;-71
2023/06/30 12:22:03;;;;;;;2.83;0.30;;;23.20;79.20;;;;;;4973537;28;20982;-75
2023/06/30 12:24:32;;;;;;;2.20;0.30;;;23.20;71.10;;;;;;4975302;28;20054;-71
2023/06/30 12:27:02;;;;;;;3.78;0.40;;;23.00;70.90;;;;;;4978752;28;20053;-71
2023/06/30 12:29:30;;;;;;;5.75;0.60;;;22.50;84.80;;;;;;4973992;28;20078;-71
2023/06/30 12:31:56;;;;;;;4.78;0.40;;;22.50;94.30;;;;;;4977552;28;20046;-71
2023/06/30 12:34:35;;;;;;;5.57;0.40;;;22.50;99.90;;;;;;4975334;28;20038;-72
2023/06/30 12:37:02;;;;;;;2.83;0.30;;;22.60;99.90;;;;;;4972161;28;20632;-71
2023/06/30 12:39:28;;;;;;;4.75;0.32;;;22.30;93.70;;;;;;4960762;28;20533;-72
2023/06/30 12:41:53;;;;;;;3.05;0.30;;;22.30;87.50;;;;;;4977366;28;20497;-71
2023/06/30 12:44:19;;;;;;;3.50;0.30;;;22.70;84.90;;;;;;4982015;28;20605;-71